sensor_id;sensor_type;location;lat;lon;timestamp;P1;durP1;ratioP1;P2;durP2;ratioP2
75038;SDS011;63609;49.992;14.512;2023-02-22T00:02:19;10.52;;;4.13;;
75038;SDS011;63609;49.992;14.512;2023-02-22T00:04:54;7.35;;;4.20;;
75038;SDS011;63609;49.992;14.512;2023-02-22T00:07:22;8.15;;;4.20;;
75038;SDS011;63609;49.992;14.512;2023-02-22T00:09:49;9.18;;;4.72;;
75038;SDS011;63609;49.992;14.512;2023-02-22T00:12:17;8.52;;;4.45;;
75038;SDS011;63609;49.992;14.512;2023-02-22T00:14:46;7.45;;;4.18;;
75038;SDS011;63609;49.992;14.512;2023-02-22T00:17:12;9.50;;;4.90;;
75038;SDS011;63609;49.992;14.512;2023-02-22T00:19:41;12.07;;;5.05;;
75038;SDS011;63609;49.992;14.512;2023-02-22T00:22:08;13.50;;;5.53;;
75038;SDS011;63609;49.992;14.512;2023-02-22T00:24:35;10.60;;;5.03;;
75038;SDS011;63609;49.992;14.512;2023-02-22T00:27:02;12.18;;;5.88;;
75038;SDS011;63609;49.992;14.512;2023-02-22T00:29:29;10.18;;;5.13;;
75038;SDS011;63609;49.992;14.512;2023-02-22T00:31:56;10.18;;;5.45;;
75038;SDS011;63609;49.992;14.512;2023-02-22T00:34:23;9.45;;;5.30;;
75038;SDS011;63609;49.992;14.512;2023-02-22T00:36:55;11.38;;;6.00;;
75038;SDS011;63609;49.992;14.512;2023-02-22T00:39:29;11.82;;;5.25;;
75038;SDS011;63609;49.992;14.512;2023-02-22T00:41:58;9.82;;;5.03;;
75038;SDS011;63609;49.992;14.512;2023-02-22T00:44:31;11.30;;;5.60;;
75038;SDS011;63609;49.992;14.512;2023-02-22T00:47:13;12.63;;;5.35;;
75038;SDS011;63609;49.992;14.512;2023-02-22T00:49:47;10.65;;;4.63;;
75038;SDS011;63609;49.992;14.512;2023-02-22T00:52:14;11.45;;;5.97;;
75038;SDS011;63609;49.992;14.512;2023-02-22T00:54:41;10.40;;;5.32;;
75038;SDS011;63609;49.992;14.512;2023-02-22T00:57:08;8.95;;;5.07;;
75038;SDS011;63609;49.992;14.512;2023-02-22T00:59:35;9.05;;;4.82;;
75038;SDS011;63609;49.992;14.512;2023-02-22T01:02:02;9.95;;;5.05;;
75038;SDS011;63609;49.992;14.512;2023-02-22T01:04:31;14.35;;;5.35;;
75038;SDS011;63609;49.992;14.512;2023-02-22T01:06:58;11.70;;;5.55;;
75038;SDS011;63609;49.992;14.512;2023-02-22T01:09:26;10.30;;;5.18;;
75038;SDS011;63609;49.992;14.512;2023-02-22T01:11:53;9.93;;;4.80;;
75038;SDS011;63609;49.992;14.512;2023-02-22T01:14:26;10.35;;;5.07;;
75038;SDS011;63609;49.992;14.512;2023-02-22T01:17:00;9.50;;;4.57;;
75038;SDS011;63609;49.992;14.512;2023-02-22T01:19:38;9.52;;;5.07;;
75038;SDS011;63609;49.992;14.512;2023-02-22T01:22:08;8.45;;;4.60;;
75038;SDS011;63609;49.992;14.512;2023-02-22T01:24:35;10.07;;;4.90;;
75038;SDS011;63609;49.992;14.512;2023-02-22T01:27:02;9.30;;;4.82;;
75038;SDS011;63609;49.992;14.512;2023-02-22T01:29:30;9.05;;;4.80;;
75038;SDS011;63609;49.992;14.512;2023-02-22T01:31:58;9.45;;;5.15;;
75038;SDS011;63609;49.992;14.512;2023-02-22T01:34:27;14.55;;;5.63;;
75038;SDS011;63609;49.992;14.512;2023-02-22T01:36:59;8.77;;;4.30;;
75038;SDS011;63609;49.992;14.512;2023-02-22T01:39:36;9.32;;;5.13;;
75038;SDS011;63609;49.992;14.512;2023-02-22T01:42:10;11.13;;;5.53;;
75038;SDS011;63609;49.992;14.512;2023-02-22T01:44:39;9.10;;;5.40;;
75038;SDS011;63609;49.992;14.512;2023-02-22T01:47:14;9.43;;;5.10;;
75038;SDS011;63609;49.992;14.512;2023-02-22T01:49:42;10.20;;;5.13;;
75038;SDS011;63609;49.992;14.512;2023-02-22T01:52:15;8.32;;;4.70;;
75038;SDS011;63609;49.992;14.512;2023-02-22T01:54:53;10.10;;;4.85;;
75038;SDS011;63609;49.992;14.512;2023-02-22T01:57:32;8.27;;;5.00;;
75038;SDS011;63609;49.992;14.512;2023-02-22T02:00:05;10.25;;;5.22;;
75038;SDS011;63609;49.992;14.512;2023-02-22T02:02:42;11.02;;;4.93;;
75038;SDS011;63609;49.992;14.512;2023-02-22T02:05:17;8.30;;;4.53;;
75038;SDS011;63609;49.992;14.512;2023-02-22T02:07:45;11.65;;;5.20;;
75038;SDS011;63609;49.992;14.512;2023-02-22T02:10:13;11.75;;;5.20;;
75038;SDS011;63609;49.992;14.512;2023-02-22T02:12:43;8.98;;;4.63;;
75038;SDS011;63609;49.992;14.512;2023-02-22T02:15:23;11.60;;;4.78;;
75038;SDS011;63609;49.992;14.512;2023-02-22T02:18:11;8.90;;;5.07;;
75038;SDS011;63609;49.992;14.512;2023-02-22T02:29:46;9.75;;;5.45;;
75038;SDS011;63609;49.992;14.512;2023-02-22T02:32:34;11.40;;;5.65;;
75038;SDS011;63609;49.992;14.512;2023-02-22T02:38:58;12.30;;;6.07;;
75038;SDS011;63609;49.992;14.512;2023-02-22T02:44:09;8.85;;;4.95;;
75038;SDS011;63609;49.992;14.512;2023-02-22T02:52:17;12.88;;;6.18;;
75038;SDS011;63609;49.992;14.512;2023-02-22T02:54:47;9.90;;;5.28;;
75038;SDS011;63609;49.992;14.512;2023-02-22T02:57:20;11.40;;;5.93;;
75038;SDS011;63609;49.992;14.512;2023-02-22T02:59:47;9.15;;;5.38;;
75038;SDS011;63609;49.992;14.512;2023-02-22T03:22:24;10.90;;;5.88;;
75038;SDS011;63609;49.992;14.512;2023-02-22T03:25:05;10.02;;;5.15;;
75038;SDS011;63609;49.992;14.512;2023-02-22T03:30:18;10.73;;;5.60;;
75038;SDS011;63609;49.992;14.512;2023-02-22T03:32:51;12.05;;;5.88;;
75038;SDS011;63609;49.992;14.512;2023-02-22T03:35:26;11.32;;;5.97;;
75038;SDS011;63609;49.992;14.512;2023-02-22T03:38:04;11.38;;;5.70;;
75038;SDS011;63609;49.992;14.512;2023-02-22T03:40:36;13.25;;;5.68;;
75038;SDS011;63609;49.992;14.512;2023-02-22T03:43:12;12.48;;;5.88;;
75038;SDS011;63609;49.992;14.512;2023-02-22T03:45:44;11.63;;;5.75;;
75038;SDS011;63609;49.992;14.512;2023-02-22T03:50:59;10.48;;;6.07;;
75038;SDS011;63609;49.992;14.512;2023-02-22T03:53:45;10.57;;;6.00;;
75038;SDS011;63609;49.992;14.512;2023-02-22T03:56:21;10.90;;;6.00;;
75038;SDS011;63609;49.992;14.512;2023-02-22T03:58:52;10.93;;;6.05;;
75038;SDS011;63609;49.992;14.512;2023-02-22T04:01:21;11.45;;;6.53;;
75038;SDS011;63609;49.992;14.512;2023-02-22T04:03:49;13.95;;;6.88;;
75038;SDS011;63609;49.992;14.512;2023-02-22T04:06:17;12.07;;;6.57;;
75038;SDS011;63609;49.992;14.512;2023-02-22T04:08:52;13.30;;;6.10;;
75038;SDS011;63609;49.992;14.512;2023-02-22T04:11:20;11.45;;;5.88;;
75038;SDS011;63609;49.992;14.512;2023-02-22T04:13:48;14.15;;;6.70;;
75038;SDS011;63609;49.992;14.512;2023-02-22T04:16:25;11.73;;;6.07;;
75038;SDS011;63609;49.992;14.512;2023-02-22T04:19:08;11.75;;;5.88;;
75038;SDS011;63609;49.992;14.512;2023-02-22T04:21:38;10.52;;;6.22;;
75038;SDS011;63609;49.992;14.512;2023-02-22T04:24:12;9.73;;;5.53;;
75038;SDS011;63609;49.992;14.512;2023-02-22T04:26:42;11.20;;;5.50;;
75038;SDS011;63609;49.992;14.512;2023-02-22T04:29:10;11.68;;;5.80;;
75038;SDS011;63609;49.992;14.512;2023-02-22T04:31:39;10.93;;;6.43;;
75038;SDS011;63609;49.992;14.512;2023-02-22T04:34:09;11.15;;;5.50;;
75038;SDS011;63609;49.992;14.512;2023-02-22T04:36:38;12.52;;;6.40;;
75038;SDS011;63609;49.992;14.512;2023-02-22T04:39:10;11.82;;;6.82;;
75038;SDS011;63609;49.992;14.512;2023-02-22T04:41:40;11.50;;;6.00;;
75038;SDS011;63609;49.992;14.512;2023-02-22T04:44:08;12.10;;;6.00;;
75038;SDS011;63609;49.992;14.512;2023-02-22T04:46:35;12.35;;;5.63;;
75038;SDS011;63609;49.992;14.512;2023-02-22T04:49:02;10.27;;;5.60;;
75038;SDS011;63609;49.992;14.512;2023-02-22T04:51:32;12.70;;;5.75;;
75038;SDS011;63609;49.992;14.512;2023-02-22T04:54:04;11.65;;;5.20;;
75038;SDS011;63609;49.992;14.512;2023-02-22T04:56:34;9.23;;;5.13;;
75038;SDS011;63609;49.992;14.512;2023-02-22T04:59:10;12.98;;;5.97;;
75038;SDS011;63609;49.992;14.512;2023-02-22T05:01:44;12.80;;;6.20;;
75038;SDS011;63609;49.992;14.512;2023-02-22T05:04:12;11.82;;;5.32;;
75038;SDS011;63609;49.992;14.512;2023-02-22T05:06:39;11.38;;;6.18;;
75038;SDS011;63609;49.992;14.512;2023-02-22T05:09:20;10.45;;;6.05;;
75038;SDS011;63609;49.992;14.512;2023-02-22T05:11:47;13.68;;;5.93;;
75038;SDS011;63609;49.992;14.512;2023-02-22T05:14:17;11.18;;;5.28;;
75038;SDS011;63609;49.992;14.512;2023-02-22T05:16:44;12.40;;;6.00;;
75038;SDS011;63609;49.992;14.512;2023-02-22T05:19:17;10.93;;;5.63;;
75038;SDS011;63609;49.992;14.512;2023-02-22T05:21:44;9.48;;;5.25;;
75038;SDS011;63609;49.992;14.512;2023-02-22T05:24:12;12.32;;;5.90;;
75038;SDS011;63609;49.992;14.512;2023-02-22T05:26:39;13.73;;;6.30;;
75038;SDS011;63609;49.992;14.512;2023-02-22T05:29:11;13.63;;;6.03;;
75038;SDS011;63609;49.992;14.512;2023-02-22T05:31:46;13.30;;;6.28;;
75038;SDS011;63609;49.992;14.512;2023-02-22T05:34:14;13.00;;;6.47;;
75038;SDS011;63609;49.992;14.512;2023-02-22T05:36:44;12.00;;;6.47;;
75038;SDS011;63609;49.992;14.512;2023-02-22T05:39:13;13.18;;;6.85;;
75038;SDS011;63609;49.992;14.512;2023-02-22T05:41:42;11.25;;;5.88;;
75038;SDS011;63609;49.992;14.512;2023-02-22T05:44:16;13.10;;;6.72;;
75038;SDS011;63609;49.992;14.512;2023-02-22T05:47:12;12.90;;;6.30;;
75038;SDS011;63609;49.992;14.512;2023-02-22T05:49:45;12.77;;;6.18;;
75038;SDS011;63609;49.992;14.512;2023-02-22T05:52:14;11.27;;;6.43;;
75038;SDS011;63609;49.992;14.512;2023-02-22T05:54:43;13.65;;;5.88;;
75038;SDS011;63609;49.992;14.512;2023-02-22T05:57:18;12.35;;;6.05;;
75038;SDS011;63609;49.992;14.512;2023-02-22T05:59:45;10.75;;;6.05;;
75038;SDS011;63609;49.992;14.512;2023-02-22T06:02:14;14.30;;;6.10;;
75038;SDS011;63609;49.992;14.512;2023-02-22T06:04:45;12.68;;;6.20;;
75038;SDS011;63609;49.992;14.512;2023-02-22T06:07:17;12.70;;;6.20;;
75038;SDS011;63609;49.992;14.512;2023-02-22T06:09:44;10.98;;;6.53;;
75038;SDS011;63609;49.992;14.512;2023-02-22T06:12:13;11.02;;;5.53;;
75038;SDS011;63609;49.992;14.512;2023-02-22T06:14:40;13.25;;;6.72;;
75038;SDS011;63609;49.992;14.512;2023-02-22T06:17:17;12.90;;;5.63;;
75038;SDS011;63609;49.992;14.512;2023-02-22T06:19:45;10.25;;;5.68;;
75038;SDS011;63609;49.992;14.512;2023-02-22T06:22:16;11.98;;;5.57;;
75038;SDS011;63609;49.992;14.512;2023-02-22T06:24:44;11.25;;;5.90;;
75038;SDS011;63609;49.992;14.512;2023-02-22T06:27:12;13.23;;;6.03;;
75038;SDS011;63609;49.992;14.512;2023-02-22T06:29:39;11.35;;;5.70;;
75038;SDS011;63609;49.992;14.512;2023-02-22T06:32:12;11.80;;;6.13;;
75038;SDS011;63609;49.992;14.512;2023-02-22T06:34:42;11.00;;;5.95;;
75038;SDS011;63609;49.992;14.512;2023-02-22T06:37:18;10.93;;;6.03;;
75038;SDS011;63609;49.992;14.512;2023-02-22T06:39:58;11.60;;;6.60;;
75038;SDS011;63609;49.992;14.512;2023-02-22T06:42:34;11.07;;;5.65;;
75038;SDS011;63609;49.992;14.512;2023-02-22T06:45:04;13.70;;;7.03;;
75038;SDS011;63609;49.992;14.512;2023-02-22T06:47:37;12.88;;;6.32;;
75038;SDS011;63609;49.992;14.512;2023-02-22T06:50:17;13.43;;;6.57;;
75038;SDS011;63609;49.992;14.512;2023-02-22T06:52:55;12.90;;;6.53;;
75038;SDS011;63609;49.992;14.512;2023-02-22T06:55:26;13.38;;;6.28;;
75038;SDS011;63609;49.992;14.512;2023-02-22T06:57:55;12.65;;;6.78;;
75038;SDS011;63609;49.992;14.512;2023-02-22T07:00:23;12.65;;;6.60;;
75038;SDS011;63609;49.992;14.512;2023-02-22T07:02:52;12.50;;;6.30;;
75038;SDS011;63609;49.992;14.512;2023-02-22T07:05:22;11.93;;;6.35;;
75038;SDS011;63609;49.992;14.512;2023-02-22T07:07:50;14.23;;;5.97;;
75038;SDS011;63609;49.992;14.512;2023-02-22T07:10:24;11.18;;;5.70;;
75038;SDS011;63609;49.992;14.512;2023-02-22T07:12:53;10.57;;;6.00;;
75038;SDS011;63609;49.992;14.512;2023-02-22T07:18:42;13.35;;;6.90;;
75038;SDS011;63609;49.992;14.512;2023-02-22T07:24:01;15.18;;;6.75;;
75038;SDS011;63609;49.992;14.512;2023-02-22T07:26:30;13.10;;;6.90;;
75038;SDS011;63609;49.992;14.512;2023-02-22T07:29:04;13.88;;;7.22;;
75038;SDS011;63609;49.992;14.512;2023-02-22T07:31:35;17.67;;;7.93;;
75038;SDS011;63609;49.992;14.512;2023-02-22T07:34:02;25.00;;;11.38;;
75038;SDS011;63609;49.992;14.512;2023-02-22T07:36:30;41.70;;;14.48;;
75038;SDS011;63609;49.992;14.512;2023-02-22T07:38:57;51.00;;;19.50;;
75038;SDS011;63609;49.992;14.512;2023-02-22T07:41:24;45.63;;;18.05;;
75038;SDS011;63609;49.992;14.512;2023-02-22T07:43:51;45.95;;;19.60;;
75038;SDS011;63609;49.992;14.512;2023-02-22T07:46:19;44.95;;;19.10;;
75038;SDS011;63609;49.992;14.512;2023-02-22T07:48:46;39.22;;;16.70;;
75038;SDS011;63609;49.992;14.512;2023-02-22T07:51:17;32.85;;;15.70;;
75038;SDS011;63609;49.992;14.512;2023-02-22T07:53:48;26.33;;;12.13;;
75038;SDS011;63609;49.992;14.512;2023-02-22T07:56:15;28.58;;;12.38;;
75038;SDS011;63609;49.992;14.512;2023-02-22T07:58:43;24.17;;;11.23;;
75038;SDS011;63609;49.992;14.512;2023-02-22T08:01:10;26.13;;;12.00;;
75038;SDS011;63609;49.992;14.512;2023-02-22T08:03:37;21.77;;;10.10;;
75038;SDS011;63609;49.992;14.512;2023-02-22T08:06:05;21.50;;;9.40;;
75038;SDS011;63609;49.992;14.512;2023-02-22T08:08:36;18.15;;;9.15;;
75038;SDS011;63609;49.992;14.512;2023-02-22T08:11:02;14.68;;;8.18;;
75038;SDS011;63609;49.992;14.512;2023-02-22T08:13:33;16.15;;;8.43;;
75038;SDS011;63609;49.992;14.512;2023-02-22T08:16:02;15.65;;;7.82;;
75038;SDS011;63609;49.992;14.512;2023-02-22T08:18:30;17.13;;;7.78;;
75038;SDS011;63609;49.992;14.512;2023-02-22T08:20:57;18.25;;;8.20;;
75038;SDS011;63609;49.992;14.512;2023-02-22T08:23:25;15.40;;;7.63;;
75038;SDS011;63609;49.992;14.512;2023-02-22T08:25:52;15.57;;;7.50;;
75038;SDS011;63609;49.992;14.512;2023-02-22T08:28:21;15.13;;;7.90;;
75038;SDS011;63609;49.992;14.512;2023-02-22T08:30:50;15.50;;;7.75;;
75038;SDS011;63609;49.992;14.512;2023-02-22T08:33:17;13.88;;;6.55;;
75038;SDS011;63609;49.992;14.512;2023-02-22T08:35:45;12.90;;;6.90;;
75038;SDS011;63609;49.992;14.512;2023-02-22T08:38:29;14.80;;;6.85;;
75038;SDS011;63609;49.992;14.512;2023-02-22T08:40:57;14.38;;;6.78;;
75038;SDS011;63609;49.992;14.512;2023-02-22T08:43:26;13.70;;;6.82;;
75038;SDS011;63609;49.992;14.512;2023-02-22T08:45:54;14.77;;;7.20;;
75038;SDS011;63609;49.992;14.512;2023-02-22T08:48:24;13.70;;;7.05;;
75038;SDS011;63609;49.992;14.512;2023-02-22T08:50:51;11.45;;;6.82;;
75038;SDS011;63609;49.992;14.512;2023-02-22T08:53:18;15.02;;;7.28;;
75038;SDS011;63609;49.992;14.512;2023-02-22T08:55:44;18.13;;;6.93;;
75038;SDS011;63609;49.992;14.512;2023-02-22T08:58:11;14.27;;;7.35;;
75038;SDS011;63609;49.992;14.512;2023-02-22T09:00:39;14.73;;;6.85;;
75038;SDS011;63609;49.992;14.512;2023-02-22T09:03:08;13.20;;;7.25;;
75038;SDS011;63609;49.992;14.512;2023-02-22T09:05:39;13.63;;;7.30;;
75038;SDS011;63609;49.992;14.512;2023-02-22T09:08:07;14.15;;;6.80;;
75038;SDS011;63609;49.992;14.512;2023-02-22T09:10:34;14.82;;;7.13;;
75038;SDS011;63609;49.992;14.512;2023-02-22T09:13:02;14.10;;;7.45;;
75038;SDS011;63609;49.992;14.512;2023-02-22T09:15:30;14.25;;;7.00;;
75038;SDS011;63609;49.992;14.512;2023-02-22T09:17:58;14.68;;;6.60;;
75038;SDS011;63609;49.992;14.512;2023-02-22T09:20:25;14.77;;;7.72;;
75038;SDS011;63609;49.992;14.512;2023-02-22T09:22:53;13.10;;;6.40;;
75038;SDS011;63609;49.992;14.512;2023-02-22T09:25:21;11.75;;;6.20;;
75038;SDS011;63609;49.992;14.512;2023-02-22T09:27:50;14.32;;;7.05;;
75038;SDS011;63609;49.992;14.512;2023-02-22T09:30:27;12.82;;;6.68;;
75038;SDS011;63609;49.992;14.512;2023-02-22T09:35:43;12.48;;;6.80;;
75038;SDS011;63609;49.992;14.512;2023-02-22T09:38:16;14.27;;;6.80;;
75038;SDS011;63609;49.992;14.512;2023-02-22T09:40:52;12.80;;;6.97;;
75038;SDS011;63609;49.992;14.512;2023-02-22T09:49:35;12.05;;;6.07;;
75038;SDS011;63609;49.992;14.512;2023-02-22T09:51:44;14.88;;;6.68;;
75038;SDS011;63609;49.992;14.512;2023-02-22T09:54:41;11.10;;;6.07;;
75038;SDS011;63609;49.992;14.512;2023-02-22T09:57:19;11.00;;;6.03;;
75038;SDS011;63609;49.992;14.512;2023-02-22T10:00:36;12.95;;;6.63;;
75038;SDS011;63609;49.992;14.512;2023-02-22T10:02:51;13.55;;;6.43;;
75038;SDS011;63609;49.992;14.512;2023-02-22T10:05:35;12.77;;;6.40;;
75038;SDS011;63609;49.992;14.512;2023-02-22T10:08:09;12.25;;;6.65;;
75038;SDS011;63609;49.992;14.512;2023-02-22T10:10:42;11.90;;;6.15;;
75038;SDS011;63609;49.992;14.512;2023-02-22T10:13:15;11.20;;;6.10;;
75038;SDS011;63609;49.992;14.512;2023-02-22T10:26:24;16.38;;;6.95;;
75038;SDS011;63609;49.992;14.512;2023-02-22T10:29:00;13.30;;;7.20;;
75038;SDS011;63609;49.992;14.512;2023-02-22T10:31:38;14.57;;;6.65;;
75038;SDS011;63609;49.992;14.512;2023-02-22T10:34:13;13.57;;;6.72;;
75038;SDS011;63609;49.992;14.512;2023-02-22T10:36:42;13.75;;;6.63;;
75038;SDS011;63609;49.992;14.512;2023-02-22T10:39:56;15.02;;;6.65;;
75038;SDS011;63609;49.992;14.512;2023-02-22T10:42:05;13.10;;;6.93;;
75038;SDS011;63609;49.992;14.512;2023-02-22T10:44:37;13.13;;;6.28;;
75038;SDS011;63609;49.992;14.512;2023-02-22T10:47:07;14.95;;;6.32;;
75038;SDS011;63609;49.992;14.512;2023-02-22T10:49:43;16.45;;;7.28;;
75038;SDS011;63609;49.992;14.512;2023-02-22T10:52:33;12.68;;;6.90;;
75038;SDS011;63609;49.992;14.512;2023-02-22T10:55:00;14.68;;;7.40;;
75038;SDS011;63609;49.992;14.512;2023-02-22T10:57:41;14.52;;;7.35;;
75038;SDS011;63609;49.992;14.512;2023-02-22T11:00:15;13.85;;;6.85;;
75038;SDS011;63609;49.992;14.512;2023-02-22T11:03:24;12.45;;;5.88;;
75038;SDS011;63609;49.992;14.512;2023-02-22T11:05:49;15.73;;;7.13;;
75038;SDS011;63609;49.992;14.512;2023-02-22T11:10:46;14.15;;;6.78;;
75038;SDS011;63609;49.992;14.512;2023-02-22T11:15:59;12.48;;;6.07;;
75038;SDS011;63609;49.992;14.512;2023-02-22T11:18:30;10.52;;;6.35;;
75038;SDS011;63609;49.992;14.512;2023-02-22T11:21:02;10.68;;;5.60;;
75038;SDS011;63609;49.992;14.512;2023-02-22T11:23:36;10.25;;;5.35;;
75038;SDS011;63609;49.992;14.512;2023-02-22T11:26:13;12.07;;;6.00;;
75038;SDS011;63609;49.992;14.512;2023-02-22T11:28:45;12.20;;;5.72;;
75038;SDS011;63609;49.992;14.512;2023-02-22T11:31:22;10.98;;;6.32;;
75038;SDS011;63609;49.992;14.512;2023-02-22T11:33:56;9.13;;;4.57;;
75038;SDS011;63609;49.992;14.512;2023-02-22T11:38:56;8.82;;;4.78;;
75038;SDS011;63609;49.992;14.512;2023-02-22T11:41:26;8.98;;;4.80;;
75038;SDS011;63609;49.992;14.512;2023-02-22T11:44:10;9.98;;;4.28;;
75038;SDS011;63609;49.992;14.512;2023-02-22T11:47:00;8.23;;;4.55;;
75038;SDS011;63609;49.992;14.512;2023-02-22T11:49:33;7.43;;;4.00;;
75038;SDS011;63609;49.992;14.512;2023-02-22T11:55:26;9.48;;;5.00;;
75038;SDS011;63609;49.992;14.512;2023-02-22T11:58:31;10.35;;;5.35;;
75038;SDS011;63609;49.992;14.512;2023-02-22T12:06:55;8.48;;;4.68;;
75038;SDS011;63609;49.992;14.512;2023-02-22T12:09:38;10.13;;;5.10;;
75038;SDS011;63609;49.992;14.512;2023-02-22T12:12:37;10.23;;;5.13;;
75038;SDS011;63609;49.992;14.512;2023-02-22T12:15:43;11.52;;;5.88;;
75038;SDS011;63609;49.992;14.512;2023-02-22T12:21:01;12.55;;;5.97;;
75038;SDS011;63609;49.992;14.512;2023-02-22T12:26:27;11.55;;;6.15;;
75038;SDS011;63609;49.992;14.512;2023-02-22T12:31:49;11.48;;;5.72;;
75038;SDS011;63609;49.992;14.512;2023-02-22T12:36:58;11.13;;;5.57;;
75038;SDS011;63609;49.992;14.512;2023-02-22T12:42:44;9.18;;;5.28;;
75038;SDS011;63609;49.992;14.512;2023-02-22T12:45:17;9.00;;;5.40;;
75038;SDS011;63609;49.992;14.512;2023-02-22T12:50:48;9.20;;;4.97;;
75038;SDS011;63609;49.992;14.512;2023-02-22T12:53:23;8.23;;;4.43;;
75038;SDS011;63609;49.992;14.512;2023-02-22T12:55:57;8.63;;;4.63;;
75038;SDS011;63609;49.992;14.512;2023-02-22T12:58:53;9.60;;;4.85;;
75038;SDS011;63609;49.992;14.512;2023-02-22T13:01:31;8.82;;;5.15;;
75038;SDS011;63609;49.992;14.512;2023-02-22T13:04:07;10.73;;;5.32;;
75038;SDS011;63609;49.992;14.512;2023-02-22T13:06:52;8.15;;;4.78;;
75038;SDS011;63609;49.992;14.512;2023-02-22T13:12:37;9.57;;;4.82;;
75038;SDS011;63609;49.992;14.512;2023-02-22T13:15:19;8.38;;;5.03;;
75038;SDS011;63609;49.992;14.512;2023-02-22T13:18:01;7.63;;;4.55;;
75038;SDS011;63609;49.992;14.512;2023-02-22T13:25:52;7.63;;;4.53;;
75038;SDS011;63609;49.992;14.512;2023-02-22T13:42:12;8.10;;;4.68;;
75038;SDS011;63609;49.992;14.512;2023-02-22T13:47:34;7.93;;;4.88;;
75038;SDS011;63609;49.992;14.512;2023-02-22T13:53:13;8.93;;;5.18;;
75038;SDS011;63609;49.992;14.512;2023-02-22T13:55:50;8.85;;;5.60;;
75038;SDS011;63609;49.992;14.512;2023-02-22T13:58:22;9.40;;;4.93;;
75038;SDS011;63609;49.992;14.512;2023-02-22T14:00:54;11.45;;;5.70;;
75038;SDS011;63609;49.992;14.512;2023-02-22T14:03:36;11.35;;;5.72;;
75038;SDS011;63609;49.992;14.512;2023-02-22T14:06:07;10.52;;;5.28;;
75038;SDS011;63609;49.992;14.512;2023-02-22T14:11:03;8.80;;;5.22;;
75038;SDS011;63609;49.992;14.512;2023-02-22T14:14:07;10.13;;;5.72;;
75038;SDS011;63609;49.992;14.512;2023-02-22T14:16:27;11.52;;;5.90;;
75038;SDS011;63609;49.992;14.512;2023-02-22T14:21:32;11.82;;;5.40;;
75038;SDS011;63609;49.992;14.512;2023-02-22T14:24:05;12.82;;;6.05;;
75038;SDS011;63609;49.992;14.512;2023-02-22T14:26:36;13.85;;;5.72;;
75038;SDS011;63609;49.992;14.512;2023-02-22T14:34:10;10.50;;;5.22;;
75038;SDS011;63609;49.992;14.512;2023-02-22T14:39:35;11.57;;;6.05;;
75038;SDS011;63609;49.992;14.512;2023-02-22T14:42:12;10.35;;;5.75;;
75038;SDS011;63609;49.992;14.512;2023-02-22T14:44:43;12.40;;;5.68;;
75038;SDS011;63609;49.992;14.512;2023-02-22T14:47:18;10.85;;;5.75;;
75038;SDS011;63609;49.992;14.512;2023-02-22T14:49:57;13.00;;;6.25;;
75038;SDS011;63609;49.992;14.512;2023-02-22T14:52:30;11.05;;;5.75;;
75038;SDS011;63609;49.992;14.512;2023-02-22T14:58:21;13.38;;;6.03;;
75038;SDS011;63609;49.992;14.512;2023-02-22T15:00:50;11.65;;;5.80;;
75038;SDS011;63609;49.992;14.512;2023-02-22T15:03:32;16.33;;;7.22;;
75038;SDS011;63609;49.992;14.512;2023-02-22T15:06:04;12.95;;;6.80;;
75038;SDS011;63609;49.992;14.512;2023-02-22T15:08:41;13.90;;;6.65;;
75038;SDS011;63609;49.992;14.512;2023-02-22T15:11:22;12.73;;;6.25;;
75038;SDS011;63609;49.992;14.512;2023-02-22T15:13:53;13.65;;;6.88;;
75038;SDS011;63609;49.992;14.512;2023-02-22T15:16:20;15.40;;;7.22;;
75038;SDS011;63609;49.992;14.512;2023-02-22T15:18:50;13.73;;;6.90;;
75038;SDS011;63609;49.992;14.512;2023-02-22T15:21:20;14.00;;;6.88;;
75038;SDS011;63609;49.992;14.512;2023-02-22T15:23:57;16.27;;;7.65;;
75038;SDS011;63609;49.992;14.512;2023-02-22T15:26:30;16.25;;;8.00;;
75038;SDS011;63609;49.992;14.512;2023-02-22T15:29:09;17.42;;;8.57;;
75038;SDS011;63609;49.992;14.512;2023-02-22T15:31:45;17.13;;;8.00;;
75038;SDS011;63609;49.992;14.512;2023-02-22T15:36:41;17.42;;;8.55;;
75038;SDS011;63609;49.992;14.512;2023-02-22T15:39:25;16.70;;;8.02;;
75038;SDS011;63609;49.992;14.512;2023-02-22T15:42:09;19.58;;;7.88;;
75038;SDS011;63609;49.992;14.512;2023-02-22T15:44:46;15.10;;;7.28;;
75038;SDS011;63609;49.992;14.512;2023-02-22T15:47:17;13.00;;;6.85;;
75038;SDS011;63609;49.992;14.512;2023-02-22T15:50:12;18.42;;;7.60;;
75038;SDS011;63609;49.992;14.512;2023-02-22T15:55:24;17.10;;;6.97;;
75038;SDS011;63609;49.992;14.512;2023-02-22T16:00:58;16.80;;;7.10;;
75038;SDS011;63609;49.992;14.512;2023-02-22T16:03:35;17.38;;;8.07;;
75038;SDS011;63609;49.992;14.512;2023-02-22T16:09:22;17.45;;;7.15;;
75038;SDS011;63609;49.992;14.512;2023-02-22T16:12:22;18.25;;;7.93;;
75038;SDS011;63609;49.992;14.512;2023-02-22T16:14:56;18.42;;;7.80;;
75038;SDS011;63609;49.992;14.512;2023-02-22T16:17:34;16.83;;;6.85;;
75038;SDS011;63609;49.992;14.512;2023-02-22T16:22:44;16.02;;;7.30;;
75038;SDS011;63609;49.992;14.512;2023-02-22T16:27:51;16.50;;;7.72;;
75038;SDS011;63609;49.992;14.512;2023-02-22T16:30:32;17.20;;;7.15;;
75038;SDS011;63609;49.992;14.512;2023-02-22T16:33:09;18.88;;;8.15;;
75038;SDS011;63609;49.992;14.512;2023-02-22T16:35:42;15.13;;;7.72;;
75038;SDS011;63609;49.992;14.512;2023-02-22T16:38:17;15.70;;;7.03;;
75038;SDS011;63609;49.992;14.512;2023-02-22T16:40:47;15.13;;;7.53;;
75038;SDS011;63609;49.992;14.512;2023-02-22T16:43:37;17.02;;;8.43;;
75038;SDS011;63609;49.992;14.512;2023-02-22T16:46:05;16.52;;;6.95;;
75038;SDS011;63609;49.992;14.512;2023-02-22T16:48:32;17.50;;;7.60;;
75038;SDS011;63609;49.992;14.512;2023-02-22T16:51:07;17.05;;;6.97;;
75038;SDS011;63609;49.992;14.512;2023-02-22T16:53:47;15.27;;;7.00;;
75038;SDS011;63609;49.992;14.512;2023-02-22T16:56:15;15.35;;;7.00;;
75038;SDS011;63609;49.992;14.512;2023-02-22T16:58:45;17.63;;;7.95;;
75038;SDS011;63609;49.992;14.512;2023-02-22T17:01:16;14.93;;;7.40;;
75038;SDS011;63609;49.992;14.512;2023-02-22T17:03:43;15.63;;;7.32;;
75038;SDS011;63609;49.992;14.512;2023-02-22T17:06:10;18.73;;;8.45;;
75038;SDS011;63609;49.992;14.512;2023-02-22T17:08:38;14.93;;;8.35;;
75038;SDS011;63609;49.992;14.512;2023-02-22T17:11:08;15.35;;;7.93;;
75038;SDS011;63609;49.992;14.512;2023-02-22T17:13:38;18.65;;;7.80;;
75038;SDS011;63609;49.992;14.512;2023-02-22T17:16:07;16.73;;;8.48;;
75038;SDS011;63609;49.992;14.512;2023-02-22T17:18:39;27.38;;;10.50;;
75038;SDS011;63609;49.992;14.512;2023-02-22T17:21:07;36.17;;;12.30;;
75038;SDS011;63609;49.992;14.512;2023-02-22T17:23:36;31.65;;;12.57;;
75038;SDS011;63609;49.992;14.512;2023-02-22T17:26:03;25.20;;;10.20;;
75038;SDS011;63609;49.992;14.512;2023-02-22T17:28:30;17.98;;;8.45;;
75038;SDS011;63609;49.992;14.512;2023-02-22T17:30:58;18.05;;;7.75;;
75038;SDS011;63609;49.992;14.512;2023-02-22T17:33:30;14.52;;;7.43;;
75038;SDS011;63609;49.992;14.512;2023-02-22T17:35:59;16.13;;;7.38;;
75038;SDS011;63609;49.992;14.512;2023-02-22T17:38:28;14.43;;;6.50;;
75038;SDS011;63609;49.992;14.512;2023-02-22T17:40:57;14.15;;;6.72;;
75038;SDS011;63609;49.992;14.512;2023-02-22T17:43:27;15.07;;;6.65;;